Willow, AK

1:34 PM AKDT on October 31, 2014 (GMT -0800)
RAWS WILLOW AK US | Change Station
CLOSE
Current Station
Personal Weather Station
Location: Willow, AK
Elevation: 200 ft
Nearby Weather Stations

Elev 200 ft 61.76 °N, 150.05 °W | Updated 36 minutes ago

Clear
Clear
22 °F
Feels Like 22 °F
N
1
Wind Variable Wind from NW
Gusts 5.0 mph

Today
High -- | Low -- °F
--% Chance of Precip.
Yesterday
High -- | Low -- °F
Precip. -- in
9:28 AM 5:58 PM
First Quarter, 59% visible
Pressure 29.21 in
Visibility 10.0 miles
Clouds Clear
Windchill 22 °F
Dew Point 14 °F
Humidity 71%
Rainfall 0.00 in
Snow Depth Not available.
UV 1 out of 12
Pollen Not available.
Air Quality Not available.
Flu Activity Not available.
METAR PAWS 312116Z AUTO 23004KT 10SM CLR M04/M10 A2921 RMK AO1

More Conditions Fewer Conditions

Pressure 29.21 in
Visibility 10.0 miles
Clouds Clear
Windchill 22 °F
Dew Point 14 °F
Humidity 71%
Rainfall 0.00 in
Snow Depth Not available.
UV 1 out of 12
Pollen Not available.
Air Quality Not available.
Flu Activity Not available.
METAR PAWS 312116Z AUTO 23004KT 10SM CLR M04/M10 A2921 RMK AO1

More Conditions Fewer Conditions

10-Day Weather Forecast

Almanac

Astronomy

Oct. 31, 2014 Rise Set
Actual Time
Civil Twilight
Nautical Twilight
Astronomical Twilight
Moon
Length of Visible Light
Length of Day
Tomorrow will be .
, % of the Moon is Illuminated

Today's Extremes

State Highs State Lows

Community

WunderPhotos

Upload Photos

1,766,738 photos uploaded!

WunderBlogs® & News

Nearby

Air Quality

  Air Quality AQ Index Pollutant
Not available.

Snow Depth

Station Depth Elevation

Earthquake Activity

City Distance Mag. Time & Date
Minimum magnitude displayed is 2.5.

Coastal Water Temperatures

Place Temperature

Nearby Weather Stations